This is the latest recevied packets stored in our database for station/object EDTY. If no packets are shown the sender has not sent any packets the latest 24 hours.

If you compare the raw packets with similar data from other websites it may differ (especially the path), the reason is that we are not collecting packets from the same APRS-IS servers. Each APRS-IS server performes duplicate filtering, and which packet that is considered to be a duplicate may differ depending on which APRS-IS server you receive your data from.

1594696001: DK6PX>APRS,TCPIP*,qAC,T2GYOR:;EDTY *010113z4907.05N/00946.77E^ EDTY 140250Z AUTO 09003KT 9999 // SCT240/// 09/08 Q1018

1594699607: DK6PX>APRS,TCPIP*,qAC,T2ROMANIA:;EDTY *010113z4907.05N/00946.77E^ EDTY 140350Z AUTO 10004KT 9999 // SCT230/// 08/07 Q1017

1594703202: DK6PX>APRS,TCPIP*,qAC,T2ITALY1:;EDTY *010113z4907.05N/00946.77E^ EDTY 140450Z 09003KT CAVOK 10/08 Q1017

1594706801: DK6PX>APRS,TCPIP*,qAC,T2LEIPZIG:;EDTY *010113z4907.05N/00946.77E^ EDTY 140550Z 00000KT CAVOK 14/10 Q1017

1594710403: DK6PX>APRS,TCPIP*,qAC,T2IRELAND:;EDTY *010113z4907.05N/00946.77E^ EDTY 140650Z VRB02KT CAVOK 17/12 Q1017

1594714001: DK6PX>APRS,TCPIP*,qAC,T2PRT:;EDTY *010113z4907.05N/00946.77E^ EDTY 140750Z VRB01KT CAVOK 21/11 Q1017

1594717604: DK6PX>APRS,TCPIP*,qAC,T2STRAS:;EDTY *010113z4907.05N/00946.77E^ EDTY 140850Z VRB03KT CAVOK 24/07 Q1016

1594721202: DK6PX>APRS,TCPIP*,qAC,T2PRT:;EDTY *010113z4907.05N/00946.77E^ EDTY 140950Z VRB02KT CAVOK 24/05 Q1016

1594724801: DK6PX>APRS,TCPIP*,qAC,T2FRA:;EDTY *010113z4907.05N/00946.77E^ EDTY 141050Z 02005KT 330V110 CAVOK 22/04 Q1016

1594728401: DK6PX>APRS,TCPIP*,qAC,T2STRAS:;EDTY *010113z4907.05N/00946.77E^ EDTY 141150Z VRB02KT CAVOK 24/07 Q1015

1594732002: DK6PX>APRS,TCPIP*,qAC,T2PRT:;EDTY *010113z4907.05N/00946.77E^ EDTY 141250Z VRB03KT CAVOK 24/04 Q1014

1594735601: DK6PX>APRS,TCPIP*,qAC,T2PRT:;EDTY *010113z4907.05N/00946.77E^ EDTY 141350Z VRB04KT CAVOK 25/04 Q1014

1594739202: DK6PX>APRS,TCPIP*,qAC,T2NUERNBG:;EDTY *010113z4907.05N/00946.77E^ EDTY 141450Z 23005KT 210V280 CAVOK 26/06 Q1014

1594742803: DK6PX>APRS,TCPIP*,qAC,T2NORWAY:;EDTY *010113z4907.05N/00946.77E^ EDTY 141550Z VRB02KT CAVOK 24/06 Q1013

1594746402: DK6PX>APRS,TCPIP*,qAC,T2CZECH:;EDTY *010113z4907.05N/00946.77E^ EDTY 141650Z 22005KT 160V250 CAVOK 24/06 Q1013

1594750001: DK6PX>APRS,TCPIP*,qAC,T2CZECH:;EDTY *010113z4907.05N/00946.77E^ EDTY 141750Z AUTO 23004KT 9999 // BKN110/// 23/08 Q1013

1594753604: DK6PX>APRS,TCPIP*,qAC,T2POLC:;EDTY *010113z4907.05N/00946.77E^ EDTY 141850Z AUTO 22004KT 9999 // FEW089/// BKN110/// 22/09 Q1013

1594757202: DK6PX>APRS,TCPIP*,qAC,T2CZECH:;EDTY *010113z4907.05N/00946.77E^ EDTY 141950Z AUTO 30004KT 9999 // OVC110/// 20/08 Q1013

1594760801: DK6PX>APRS,TCPIP*,qAC,T2FFL:;EDTY *010113z4907.05N/00946.77E^ EDTY 142050Z AUTO VRB02KT 9999 // BKN120/// BKN140/// 20/08 Q1013

1594764403: DK6PX>APRS,TCPIP*,qAC,T2CZECH:;EDTY *010113z4907.05N/00946.77E^ EDTY 142150Z AUTO 29005KT 260V320 9999 // FEW083/// BKN110/// OVC130/// 19/09 Q1013

1594768007: DK6PX>APRS,TCPIP*,qAC,T2CZECH:;EDTY *010113z4907.05N/00946.77E^ EDTY 142250Z AUTO 30005KT 9999 // OVC091/// 19/09 Q1014

1594771601: DK6PX>APRS,TCPIP*,qAC,T2SP:;EDTY *010113z4907.05N/00946.77E^ EDTY 142350Z AUTO 33007KT 9999 // BKN091/// OVC110/// 18/11 Q1014

1594775202: DK6PX>APRS,TCPIP*,qAC,T2SWEDEN:;EDTY *010113z4907.05N/00946.77E^ EDTY 150050Z AUTO 32005KT 9999 // BKN082/// OVC110/// 17/12 Q1013

1594778807: DK6PX>APRS,TCPIP*,qAC,T2CZECH:;EDTY *010113z4907.05N/00946.77E^ EDTY 150150Z AUTO 28005KT 9999 // OVC079/// 16/12 Q1013

Initial position
Current position
Ruler